Time;durP1;ratioP1;P1;durP2;ratioP2;P2;SDS_P1;SDS_P2;PMS_P1;PMS_P2;Temp;Humidity;BMP_temperature;BMP_pressure;BME280_temperature;BME280_humidity;BME280_pressure;Samples;Min_cycle;Max_cycle;Signal;HPM_P1;HPM_P2
2021/05/01 00:00:18;;;;;;;14.37;9.83;;;9.60;99.90;;;;;;5031752;28;20423;-49
2021/05/01 00:02:45;;;;;;;10.90;9.80;;;9.60;99.90;;;;;;5031162;28;20553;-50
2021/05/01 00:05:12;;;;;;;9.43;8.33;;;9.40;99.90;;;;;;5031720;28;20454;-49
2021/05/01 00:07:38;;;;;;;11.57;9.70;;;9.40;99.90;;;;;;5031270;28;20446;-50
2021/05/01 00:10:08;;;;;;;16.20;9.90;;;9.10;99.90;;;;;;5031731;28;20488;-51
2021/05/01 00:12:34;;;;;;;13.53;9.90;;;9.50;99.90;;;;;;5031206;28;20447;-51
2021/05/01 00:15:01;;;;;;;11.40;9.87;;;9.50;99.90;;;;;;5031347;28;20442;-49
2021/05/01 00:17:27;;;;;;;12.13;9.23;;;9.20;99.90;;;;;;5031386;28;20432;-50
2021/05/01 00:19:53;;;;;;;10.40;9.33;;;9.70;99.90;;;;;;5031297;28;20523;-50
2021/05/01 00:22:19;;;;;;;11.63;9.27;;;9.30;99.90;;;;;;5030856;28;20939;-49
2021/05/01 00:24:45;;;;;;;13.23;10.43;;;9.10;99.90;;;;;;5013528;28;20451;-50
2021/05/01 00:27:12;;;;;;;13.47;10.70;;;9.60;99.90;;;;;;5013168;28;20954;-52
2021/05/01 00:29:39;;;;;;;13.77;10.87;;;9.60;99.90;;;;;;5031239;28;20523;-50
2021/05/01 00:32:06;;;;;;;11.73;10.10;;;9.10;99.90;;;;;;5031139;28;20494;-49
2021/05/01 00:34:32;;;;;;;11.20;9.03;;;9.40;99.90;;;;;;5030795;28;20439;-50
2021/05/01 00:36:58;;;;;;;11.30;9.90;;;9.20;99.90;;;;;;5031036;28;20438;-50
2021/05/01 00:39:24;;;;;;;14.47;10.50;;;9.40;99.90;;;;;;5030804;28;20537;-50
2021/05/01 00:41:50;;;;;;;11.70;10.50;;;9.20;99.90;;;;;;5030829;28;20478;-50
2021/05/01 00:44:18;;;;;;;13.60;11.33;;;9.30;99.90;;;;;;5030592;28;20489;-50
2021/05/01 00:46:44;;;;;;;16.17;11.17;;;9.20;99.90;;;;;;5013082;28;20454;-51
2021/05/01 00:49:10;;;;;;;12.50;10.43;;;9.30;99.90;;;;;;5031300;28;20467;-51
2021/05/01 00:51:37;;;;;;;15.37;9.53;;;9.20;99.90;;;;;;5030740;28;20478;-50
2021/05/01 00:54:03;;;;;;;11.13;10.10;;;9.30;99.90;;;;;;5030514;28;20875;-50
2021/05/01 00:56:30;;;;;;;13.47;10.37;;;9.40;99.90;;;;;;5029771;28;20539;-51
2021/05/01 00:58:57;;;;;;;13.87;10.80;;;9.30;99.90;;;;;;5030434;28;20474;-51
2021/05/01 01:01:25;;;;;;;13.67;12.30;;;9.70;99.90;;;;;;5030336;28;20517;-51
2021/05/01 01:03:52;;;;;;;13.53;10.70;;;9.50;99.90;;;;;;5030209;28;20478;-51
2021/05/01 01:06:18;;;;;;;15.87;11.20;;;9.20;99.90;;;;;;5030348;28;20470;-51
2021/05/01 01:08:45;;;;;;;20.63;12.50;;;9.10;99.90;;;;;;5012438;28;20498;-50
2021/05/01 01:11:12;;;;;;;12.13;10.20;;;9.40;99.90;;;;;;5030124;28;20460;-49
2021/05/01 01:13:38;;;;;;;13.40;12.00;;;9.50;99.90;;;;;;5029881;28;20493;-50
2021/05/01 01:16:05;;;;;;;15.03;11.47;;;9.20;99.90;;;;;;5030142;28;20970;-50
2021/05/01 01:18:33;;;;;;;13.90;11.40;;;9.50;99.90;;;;;;5029909;28;20467;-49
2021/05/01 01:21:03;;;;;;;12.93;11.30;;;9.30;99.90;;;;;;5030433;28;20486;-51
2021/05/01 01:23:30;;;;;;;14.73;10.83;;;9.40;99.90;;;;;;5030269;28;20490;-50
2021/05/01 01:25:57;;;;;;;14.40;11.30;;;9.20;99.90;;;;;;5030263;28;20503;-51
2021/05/01 01:28:23;;;;;;;12.80;10.93;;;9.00;99.90;;;;;;5030387;28;20889;-51
2021/05/01 01:30:50;;;;;;;16.43;12.17;;;9.10;99.90;;;;;;5030057;28;20432;-49
2021/05/01 01:33:17;;;;;;;15.33;11.87;;;9.20;99.90;;;;;;5030142;28;20899;-51
2021/05/01 01:35:43;;;;;;;16.13;11.97;;;9.20;99.90;;;;;;5030275;28;20942;-50
2021/05/01 01:38:09;;;;;;;13.33;12.00;;;8.90;99.90;;;;;;5030129;28;20529;-50
2021/05/01 01:40:37;;;;;;;12.90;11.30;;;9.30;99.90;;;;;;5030406;28;20485;-52
2021/05/01 01:43:04;;;;;;;13.53;12.13;;;9.30;99.90;;;;;;5029841;28;20541;-49
2021/05/01 01:45:31;;;;;;;15.57;11.47;;;9.00;99.90;;;;;;5030192;28;20439;-49
2021/05/01 01:47:58;;;;;;;14.17;12.27;;;9.00;99.90;;;;;;5030323;28;20428;-49
2021/05/01 01:50:26;;;;;;;16.10;13.47;;;9.10;99.90;;;;;;5030337;28;20481;-50
2021/05/01 01:52:53;;;;;;;14.77;12.20;;;8.90;99.90;;;;;;5029916;28;20461;-50
2021/05/01 01:55:21;;;;;;;18.00;11.13;;;9.00;99.90;;;;;;5030250;28;20431;-50
2021/05/01 01:57:49;;;;;;;17.37;12.20;;;9.00;99.90;;;;;;5030455;28;20439;-50
2021/05/01 02:00:18;;;;;;;16.90;12.00;;;9.80;99.90;;;;;;5030126;28;20501;-49
2021/05/01 02:02:45;;;;;;;16.27;11.83;;;9.10;99.90;;;;;;5029798;28;20502;-49
2021/05/01 02:05:12;;;;;;;14.23;11.37;;;8.80;99.90;;;;;;5030096;28;20474;-49
2021/05/01 02:07:39;;;;;;;12.70;11.50;;;9.20;99.90;;;;;;5033183;28;20455;-49
2021/05/01 02:10:08;;;;;;;14.23;11.60;;;9.50;99.90;;;;;;5035976;28;20550;-50
2021/05/01 02:12:37;;;;;;;14.67;10.93;;;9.20;99.90;;;;;;5036450;28;20459;-50
2021/05/01 02:15:09;;;;;;;14.10;12.03;;;9.40;99.90;;;;;;5033765;28;20939;-50
2021/05/01 02:17:55;;;;;;;16.60;12.80;;;9.30;99.90;;;;;;5034180;28;20434;-50
2021/05/01 02:20:23;;;;;;;15.23;13.27;;;9.20;99.90;;;;;;5033553;28;20584;-50
2021/05/01 02:22:50;;;;;;;18.40;13.03;;;9.40;99.90;;;;;;5033095;28;20545;-50
2021/05/01 02:25:16;;;;;;;15.53;12.50;;;9.20;99.90;;;;;;5033703;28;20474;-50
2021/05/01 02:27:42;;;;;;;17.50;13.07;;;9.40;99.90;;;;;;5033612;28;20518;-50
2021/05/01 02:30:13;;;;;;;19.47;14.30;;;9.40;99.90;;;;;;5033090;28;20518;-50
2021/05/01 02:32:39;;;;;;;17.47;14.27;;;9.30;99.90;;;;;;5032218;28;20550;-50
2021/05/01 02:35:08;;;;;;;17.10;13.00;;;9.30;99.90;;;;;;5033248;28;20871;-50
2021/05/01 02:37:34;;;;;;;17.73;14.30;;;9.30;99.90;;;;;;5033624;28;20538;-49
2021/05/01 02:40:01;;;;;;;20.17;13.80;;;9.80;99.90;;;;;;5033585;28;21065;-50
2021/05/01 02:42:27;;;;;;;16.90;14.67;;;9.20;99.90;;;;;;5032851;28;20554;-49
2021/05/01 02:44:53;;;;;;;17.67;12.40;;;9.10;99.90;;;;;;5033226;28;20538;-49
2021/05/01 02:47:20;;;;;;;14.97;13.43;;;9.10;99.90;;;;;;5033111;28;20466;-50
2021/05/01 02:49:47;;;;;;;17.73;14.73;;;9.30;99.90;;;;;;5032980;28;20455;-49
2021/05/01 02:52:13;;;;;;;19.90;13.87;;;9.20;99.90;;;;;;5032894;28;20954;-49
2021/05/01 02:54:39;;;;;;;19.90;15.13;;;9.50;99.90;;;;;;5032759;28;20446;-50
2021/05/01 02:57:05;;;;;;;19.03;14.20;;;9.10;99.90;;;;;;5032876;28;20796;-50
2021/05/01 02:59:32;;;;;;;23.77;14.53;;;9.20;99.90;;;;;;5014721;28;20522;-50
2021/05/01 03:01:58;;;;;;;17.20;14.43;;;9.20;99.90;;;;;;5032674;28;20508;-49
2021/05/01 03:04:25;;;;;;;17.40;15.60;;;8.70;99.90;;;;;;5032485;28;20522;-49
2021/05/01 03:06:52;;;;;;;15.20;13.60;;;9.10;99.90;;;;;;5032650;28;21091;-50
2021/05/01 03:09:18;;;;;;;20.80;14.70;;;9.20;99.90;;;;;;5032658;28;20998;-50
2021/05/01 03:11:44;;;;;;;17.67;14.67;;;9.70;99.90;;;;;;5032556;28;20456;-50
2021/05/01 03:14:10;;;;;;;20.43;15.13;;;9.40;99.90;;;;;;5032049;28;20458;-50
2021/05/01 03:16:37;;;;;;;17.90;14.70;;;9.00;99.90;;;;;;5032516;28;20518;-50
2021/05/01 03:19:03;;;;;;;17.33;14.20;;;8.90;99.90;;;;;;5031689;28;20513;-50
2021/05/01 03:21:30;;;;;;;16.10;14.07;;;9.20;99.90;;;;;;5032371;28;20502;-49
2021/05/01 03:23:57;;;;;;;16.90;14.47;;;9.10;99.90;;;;;;5032245;28;20530;-49
2021/05/01 03:26:23;;;;;;;17.00;13.70;;;9.20;99.90;;;;;;5032332;28;20431;-49
2021/05/01 03:28:49;;;;;;;16.50;14.20;;;8.90;99.90;;;;;;5032337;28;20939;-50
2021/05/01 03:31:15;;;;;;;15.20;13.57;;;8.90;99.90;;;;;;5032414;28;20999;-50
2021/05/01 03:33:42;;;;;;;18.87;14.27;;;8.90;99.90;;;;;;5032022;28;20763;-50
2021/05/01 03:36:09;;;;;;;21.10;14.90;;;8.90;99.90;;;;;;5032338;28;20901;-50
2021/05/01 03:38:36;;;;;;;15.60;13.93;;;8.90;99.90;;;;;;5032168;28;20546;-50
2021/05/01 03:41:03;;;;;;;16.60;14.90;;;8.80;99.90;;;;;;5031715;28;20436;-50
2021/05/01 03:43:29;;;;;;;18.50;14.50;;;8.90;99.90;;;;;;5031890;28;20542;-49
2021/05/01 03:45:55;;;;;;;17.83;14.43;;;8.90;99.90;;;;;;5014213;28;20450;-50
2021/05/01 03:48:21;;;;;;;17.00;14.97;;;9.40;99.90;;;;;;5031899;28;20467;-50
2021/05/01 03:50:48;;;;;;;22.90;15.37;;;9.10;99.90;;;;;;5032194;28;20436;-50
2021/05/01 03:53:15;;;;;;;21.20;14.33;;;8.90;99.90;;;;;;5031598;28;20935;-49
2021/05/01 03:55:42;;;;;;;19.07;13.87;;;8.90;99.90;;;;;;5031953;28;20930;-50
2021/05/01 03:58:08;;;;;;;17.33;13.83;;;9.10;99.90;;;;;;5032288;28;20439;-50
2021/05/01 04:00:35;;;;;;;19.50;14.23;;;9.00;99.90;;;;;;5013847;28;20540;-49
2021/05/01 04:03:01;;;;;;;19.27;15.50;;;9.30;99.90;;;;;;5031248;28;20471;-49
2021/05/01 04:05:27;;;;;;;16.77;15.17;;;8.50;99.90;;;;;;5031680;28;20531;-50
2021/05/01 04:07:53;;;;;;;17.07;14.80;;;8.70;99.90;;;;;;5031658;28;20402;-50
2021/05/01 04:10:20;;;;;;;17.20;15.50;;;9.70;99.90;;;;;;5031719;28;20505;-50
2021/05/01 04:12:47;;;;;;;19.60;15.53;;;9.60;99.90;;;;;;5031506;28;20459;-50
2021/05/01 04:15:14;;;;;;;17.73;14.50;;;9.40;99.90;;;;;;5031499;28;20582;-49
2021/05/01 04:17:40;;;;;;;15.60;13.83;;;9.20;99.90;;;;;;5031431;28;20434;-50
2021/05/01 04:20:08;;;;;;;17.90;15.70;;;9.20;99.90;;;;;;5031418;28;20820;-50
2021/05/01 04:22:35;;;;;;;19.30;14.90;;;9.20;99.90;;;;;;5031070;28;21003;-50
2021/05/01 04:25:01;;;;;;;17.47;15.50;;;9.10;99.90;;;;;;5031529;28;20552;-50
2021/05/01 04:27:29;;;;;;;24.80;16.93;;;9.20;99.90;;;;;;5031590;28;20447;-50
2021/05/01 04:29:56;;;;;;;17.97;15.20;;;9.40;99.90;;;;;;5030465;28;20435;-50
2021/05/01 04:32:22;;;;;;;16.93;14.43;;;9.80;99.90;;;;;;5030910;28;20463;-50
2021/05/01 04:34:49;;;;;;;17.53;15.47;;;9.20;99.90;;;;;;5031119;28;20439;-51
2021/05/01 04:37:16;;;;;;;19.43;15.90;;;9.40;99.90;;;;;;5031049;28;20444;-50
2021/05/01 04:39:42;;;;;;;18.17;15.63;;;9.30;99.90;;;;;;5030715;28;21017;-50
2021/05/01 04:42:09;;;;;;;18.53;15.67;;;9.40;99.90;;;;;;5054042;23;20562;-45
2021/05/01 04:44:36;;;;;;;18.33;15.60;;;9.30;99.90;;;;;;5031965;28;20442;-45
2021/05/01 04:47:04;;;;;;;17.80;15.40;;;9.90;99.90;;;;;;5032391;28;21011;-47
2021/05/01 04:49:30;;;;;;;17.70;15.83;;;9.80;99.90;;;;;;5032513;28;20423;-46
2021/05/01 04:51:56;;;;;;;17.57;15.47;;;9.40;99.90;;;;;;5032443;28;20486;-45
2021/05/01 04:54:22;;;;;;;22.20;15.00;;;9.40;99.90;;;;;;5032094;28;20434;-45
2021/05/01 04:56:49;;;;;;;17.57;15.77;;;9.60;99.90;;;;;;5032467;28;20416;-45
2021/05/01 04:59:15;;;;;;;17.60;14.73;;;9.40;99.90;;;;;;5032107;28;20558;-46
2021/05/01 05:01:41;;;;;;;16.77;14.93;;;9.50;99.90;;;;;;5014668;28;21014;-46
2021/05/01 05:04:08;;;;;;;18.53;14.10;;;9.50;99.90;;;;;;5032002;28;20440;-45
2021/05/01 05:06:34;;;;;;;22.33;17.60;;;9.50;99.90;;;;;;5032349;28;20463;-46
2021/05/01 05:09:02;;;;;;;18.00;16.10;;;9.90;99.90;;;;;;5033233;28;20931;-46
2021/05/01 05:11:28;;;;;;;18.17;16.37;;;9.40;99.90;;;;;;5033961;28;20993;-46
2021/05/01 05:13:55;;;;;;;18.63;14.77;;;9.50;99.90;;;;;;5033313;28;20871;-46
2021/05/01 05:16:21;;;;;;;19.00;16.40;;;9.10;99.90;;;;;;5034002;28;20443;-46
2021/05/01 05:18:47;;;;;;;20.30;15.77;;;9.90;99.90;;;;;;5033837;28;20578;-45
2021/05/01 05:21:14;;;;;;;17.30;15.50;;;9.40;99.90;;;;;;5033722;28;20489;-46
2021/05/01 05:23:41;;;;;;;17.53;14.73;;;9.70;99.90;;;;;;5033733;28;20444;-46
2021/05/01 05:26:07;;;;;;;18.20;16.00;;;9.90;99.90;;;;;;5016531;28;20467;-46
2021/05/01 05:28:33;;;;;;;21.37;16.67;;;9.40;99.90;;;;;;5033616;28;20427;-47
2021/05/01 05:30:59;;;;;;;21.80;15.63;;;10.00;99.90;;;;;;5033744;28;20432;-46
2021/05/01 05:33:25;;;;;;;20.60;15.97;;;9.60;99.90;;;;;;5014312;28;20467;-46
2021/05/01 05:35:52;;;;;;;17.27;15.47;;;9.70;99.90;;;;;;5032273;28;20801;-46
2021/05/01 05:38:19;;;;;;;18.10;15.23;;;10.20;99.90;;;;;;5032947;28;20928;-46
2021/05/01 05:40:45;;;;;;;20.63;15.60;;;9.50;99.90;;;;;;5031567;28;20475;-46
2021/05/01 05:43:11;;;;;;;18.20;15.73;;;9.70;99.90;;;;;;5030944;28;20474;-46
2021/05/01 05:45:39;;;;;;;19.50;16.13;;;10.00;99.90;;;;;;5031888;28;20434;-46
2021/05/01 05:48:06;;;;;;;20.57;16.97;;;9.90;99.90;;;;;;5031809;28;20768;-46
2021/05/01 05:50:33;;;;;;;25.47;16.13;;;10.10;99.90;;;;;;5031992;28;20430;-46
2021/05/01 05:53:00;;;;;;;21.83;16.03;;;9.80;99.90;;;;;;5031279;28;20452;-46
2021/05/01 05:55:27;;;;;;;18.80;15.40;;;10.10;99.90;;;;;;5031391;28;20869;-46
2021/05/01 05:57:55;;;;;;;21.10;15.57;;;10.50;99.90;;;;;;5031691;28;20443;-47
2021/05/01 06:00:23;;;;;;;17.70;15.20;;;10.20;99.90;;;;;;5031650;28;20471;-46
2021/05/01 06:02:51;;;;;;;22.13;17.60;;;10.10;99.90;;;;;;5031187;28;20821;-46
2021/05/01 06:05:22;;;;;;;23.63;17.20;;;10.20;99.90;;;;;;5031441;28;20474;-45
2021/05/01 06:07:51;;;;;;;24.40;17.80;;;9.90;99.90;;;;;;5031276;28;20432;-45
2021/05/01 06:10:18;;;;;;;21.27;17.07;;;10.10;99.90;;;;;;5013685;28;20497;-46
2021/05/01 06:12:45;;;;;;;25.10;15.97;;;10.10;99.90;;;;;;5031106;28;20454;-46
2021/05/01 06:15:14;;;;;;;22.30;16.30;;;10.10;99.90;;;;;;5031310;28;20802;-46
2021/05/01 06:17:42;;;;;;;18.87;14.80;;;10.40;99.90;;;;;;5013760;28;20495;-45
2021/05/01 06:20:10;;;;;;;22.53;16.27;;;10.60;99.90;;;;;;5031355;28;20886;-46
2021/05/01 06:22:38;;;;;;;26.20;16.57;;;10.80;99.90;;;;;;5031267;28;20536;-47
2021/05/01 06:25:06;;;;;;;26.13;16.10;;;10.30;99.90;;;;;;5031148;28;20455;-46
2021/05/01 06:27:33;;;;;;;19.20;15.70;;;10.60;99.90;;;;;;5031626;28;20438;-46
2021/05/01 06:30:02;;;;;;;21.27;17.93;;;10.80;99.90;;;;;;5031476;28;20443;-46
2021/05/01 06:32:28;;;;;;;29.00;17.57;;;10.50;99.90;;;;;;5030879;28;20451;-44
2021/05/01 06:34:57;;;;;;;23.60;15.83;;;11.00;99.90;;;;;;5031376;28;20777;-45
2021/05/01 06:37:24;;;;;;;22.00;16.73;;;10.40;99.90;;;;;;5031417;28;20431;-45
2021/05/01 06:39:52;;;;;;;19.97;16.40;;;10.60;99.90;;;;;;5031194;28;20475;-45
2021/05/01 06:42:20;;;;;;;21.57;16.20;;;10.60;99.90;;;;;;5030779;28;20459;-46
2021/05/01 06:44:50;;;;;;;19.60;15.20;;;10.40;99.90;;;;;;5031187;28;20497;-45
2021/05/01 06:47:24;;;;;;;21.20;16.13;;;10.70;99.90;;;;;;5031096;28;20469;-46
2021/05/01 06:50:02;;;;;;;23.83;15.53;;;10.80;99.90;;;;;;5013316;28;20447;-46
2021/05/01 06:52:29;;;;;;;21.57;16.37;;;11.20;99.90;;;;;;5030912;28;20832;-45
2021/05/01 06:55:00;;;;;;;23.23;16.50;;;10.50;99.90;;;;;;5034013;28;20432;-45
2021/05/01 06:57:27;;;;;;;21.33;17.07;;;10.70;99.90;;;;;;5034685;28;20862;-46
2021/05/01 06:59:55;;;;;;;19.13;15.20;;;11.20;99.90;;;;;;5034491;28;20836;-45
2021/05/01 07:02:27;;;;;;;18.40;15.60;;;10.80;99.90;;;;;;5034165;28;20503;-46
2021/05/01 07:04:55;;;;;;;23.00;16.67;;;10.80;99.90;;;;;;5034598;28;20442;-48
2021/05/01 07:07:22;;;;;;;23.40;17.30;;;10.40;99.90;;;;;;5034376;28;20535;-45
2021/05/01 07:09:49;;;;;;;22.97;18.17;;;10.80;99.90;;;;;;5034239;28;20454;-46
2021/05/01 07:12:18;;;;;;;24.83;18.53;;;10.90;99.90;;;;;;5034095;28;20451;-47
2021/05/01 07:14:45;;;;;;;23.33;17.47;;;11.20;99.90;;;;;;5034404;28;20428;-47
2021/05/01 07:17:13;;;;;;;23.70;18.50;;;11.00;99.90;;;;;;5034575;28;20459;-47
2021/05/01 07:19:40;;;;;;;22.77;17.60;;;11.10;99.90;;;;;;5033816;28;20569;-46
2021/05/01 07:22:07;;;;;;;26.23;19.10;;;11.20;99.90;;;;;;5034025;28;21023;-47
2021/05/01 07:24:33;;;;;;;24.77;18.33;;;11.50;99.90;;;;;;5033583;28;20494;-46
2021/05/01 07:27:01;;;;;;;25.40;18.90;;;10.70;99.90;;;;;;5034175;28;20473;-45
2021/05/01 07:29:32;;;;;;;26.27;18.80;;;11.10;99.90;;;;;;5034403;28;20437;-46
2021/05/01 07:31:59;;;;;;;23.20;17.67;;;11.20;99.90;;;;;;5034012;28;20449;-44
2021/05/01 07:34:26;;;;;;;25.00;19.77;;;11.30;99.90;;;;;;5033533;28;20479;-46
2021/05/01 07:36:56;;;;;;;21.13;17.20;;;11.30;99.90;;;;;;5015851;28;20447;-45
2021/05/01 07:39:24;;;;;;;21.27;18.60;;;11.60;99.90;;;;;;5033342;28;20475;-45
2021/05/01 07:41:56;;;;;;;26.47;20.90;;;11.40;99.90;;;;;;5033617;28;20494;-45
2021/05/01 07:44:25;;;;;;;21.97;18.80;;;11.70;99.90;;;;;;5033667;28;20454;-46
2021/05/01 07:46:52;;;;;;;25.60;18.07;;;11.30;99.90;;;;;;5034232;28;20449;-45
2021/05/01 07:49:18;;;;;;;22.30;17.37;;;11.40;99.90;;;;;;5034958;28;20436;-45
2021/05/01 07:51:45;;;;;;;24.70;19.07;;;11.50;99.90;;;;;;5033900;28;20506;-46
2021/05/01 07:54:12;;;;;;;27.77;19.73;;;11.10;99.90;;;;;;5033092;28;20462;-47
2021/05/01 07:56:39;;;;;;;24.80;16.80;;;11.40;99.90;;;;;;5033763;28;20436;-45
2021/05/01 07:59:06;;;;;;;25.40;17.53;;;11.30;99.90;;;;;;5033400;28;20945;-45
2021/05/01 08:01:32;;;;;;;22.13;18.10;;;10.70;99.90;;;;;;5033337;28;20453;-46
2021/05/01 08:03:59;;;;;;;27.33;19.10;;;11.30;99.90;;;;;;5033037;28;20443;-46
2021/05/01 08:06:27;;;;;;;25.50;18.50;;;11.20;99.90;;;;;;5016136;28;20846;-46
2021/05/01 08:08:53;;;;;;;20.83;16.30;;;11.30;99.90;;;;;;5033788;28;20429;-46
2021/05/01 08:11:20;;;;;;;26.20;18.13;;;11.40;99.90;;;;;;5034019;28;20510;-45
2021/05/01 08:13:47;;;;;;;25.03;18.90;;;11.50;99.90;;;;;;5034445;28;20449;-45
2021/05/01 08:16:14;;;;;;;22.77;16.83;;;11.40;99.90;;;;;;5034746;28;20428;-45
2021/05/01 08:18:40;;;;;;;24.17;19.07;;;11.30;99.90;;;;;;5034479;28;20465;-46
2021/05/01 08:21:07;;;;;;;23.00;16.90;;;11.50;99.90;;;;;;5033862;28;20483;-45
2021/05/01 08:23:33;;;;;;;21.30;18.07;;;11.70;99.90;;;;;;5032593;28;20495;-45
2021/05/01 08:26:00;;;;;;;20.40;17.90;;;11.80;99.90;;;;;;5032906;28;20428;-45
2021/05/01 08:28:27;;;;;;;21.60;17.20;;;11.70;99.90;;;;;;5033068;28;20437;-46
2021/05/01 08:30:54;;;;;;;24.80;18.07;;;11.50;99.90;;;;;;5032906;28;20861;-46
2021/05/01 08:33:21;;;;;;;22.90;18.00;;;12.10;99.90;;;;;;5032527;28;20962;-45
2021/05/01 08:35:48;;;;;;;26.00;17.60;;;11.80;99.90;;;;;;5032974;28;20448;-46
2021/05/01 08:38:14;;;;;;;23.13;17.43;;;11.70;99.90;;;;;;5032864;28;20425;-46
2021/05/01 08:40:41;;;;;;;20.47;16.90;;;12.10;99.90;;;;;;5033457;28;20481;-47
2021/05/01 08:43:07;;;;;;;23.77;18.90;;;12.80;99.90;;;;;;5033251;28;20460;-47
2021/05/01 08:45:35;;;;;;;21.73;17.90;;;12.10;99.90;;;;;;5032556;28;20437;-45
2021/05/01 08:48:02;;;;;;;21.97;18.10;;;12.90;99.90;;;;;;5033331;28;20438;-46
2021/05/01 08:50:36;;;;;;;20.53;17.40;;;12.10;99.90;;;;;;5034587;28;20437;-45
2021/05/01 08:53:04;;;;;;;20.27;17.97;;;12.50;99.90;;;;;;5034629;28;20451;-46
2021/05/01 08:55:34;;;;;;;21.00;17.80;;;13.10;99.90;;;;;;5035550;28;20843;-44
2021/05/01 08:58:01;;;;;;;22.03;18.03;;;13.30;99.90;;;;;;5035007;28;20476;-46
2021/05/01 09:00:27;;;;;;;22.23;16.47;;;13.10;99.90;;;;;;5033917;28;21016;-46
2021/05/01 09:02:56;;;;;;;24.33;16.70;;;13.20;99.90;;;;;;5032715;28;20458;-46
2021/05/01 09:05:24;;;;;;;23.70;17.57;;;13.30;99.90;;;;;;5033729;28;20432;-45
2021/05/01 09:07:51;;;;;;;23.20;17.80;;;13.50;99.90;;;;;;5033135;28;20537;-46
2021/05/01 09:10:18;;;;;;;23.60;17.27;;;12.80;99.90;;;;;;5015306;28;20455;-46
2021/05/01 09:12:47;;;;;;;18.73;15.93;;;12.60;99.90;;;;;;5032738;28;20465;-46
2021/05/01 09:15:19;;;;;;;17.40;14.73;;;13.10;99.90;;;;;;5015435;28;20455;-47
2021/05/01 09:17:47;;;;;;;18.83;16.80;;;12.70;99.90;;;;;;5031930;28;20427;-46
2021/05/01 09:20:15;;;;;;;19.87;17.33;;;13.10;99.90;;;;;;5032515;28;20479;-46
2021/05/01 09:22:58;;;;;;;19.20;16.80;;;13.10;99.90;;;;;;5033257;28;20458;-46
2021/05/01 09:25:26;;;;;;;17.33;15.07;;;13.10;99.70;;;;;;5033968;28;20474;-46
2021/05/01 09:28:07;;;;;;;18.77;16.83;;;13.70;99.90;;;;;;5033420;28;20898;-46
2021/05/01 09:30:37;;;;;;;18.10;15.67;;;13.30;99.10;;;;;;5032839;28;20755;-46
2021/05/01 09:33:25;;;;;;;19.73;16.13;;;13.90;99.50;;;;;;5013937;28;20521;-47
2021/05/01 09:35:58;;;;;;;22.40;16.87;;;13.20;98.70;;;;;;5031691;28;20442;-47
2021/05/01 09:38:28;;;;;;;17.00;15.30;;;12.70;98.50;;;;;;5032547;28;20453;-46
2021/05/01 09:40:55;;;;;;;18.60;15.90;;;13.20;98.90;;;;;;5032769;28;20513;-47
2021/05/01 09:43:21;;;;;;;20.80;16.87;;;13.40;99.10;;;;;;5031008;28;20588;-46
2021/05/01 09:45:47;;;;;;;19.30;17.27;;;13.60;98.80;;;;;;5013636;28;20552;-45
2021/05/01 09:48:16;;;;;;;21.00;17.60;;;13.30;98.70;;;;;;5031386;28;20625;-46
2021/05/01 09:50:43;;;;;;;17.37;15.50;;;13.50;98.90;;;;;;5031407;28;20440;-45
2021/05/01 09:53:13;;;;;;;17.67;15.40;;;13.10;98.70;;;;;;5031025;28;20451;-46
2021/05/01 09:55:51;;;;;;;19.67;16.73;;;13.50;98.80;;;;;;5031528;28;20443;-46
2021/05/01 09:58:20;;;;;;;17.30;15.50;;;13.60;98.50;;;;;;5031582;28;20861;-45
2021/05/01 10:00:48;;;;;;;17.80;16.00;;;13.90;97.90;;;;;;5032091;28;20482;-46
2021/05/01 10:03:25;;;;;;;18.93;16.80;;;14.10;97.40;;;;;;5031825;28;20451;-45
2021/05/01 10:05:54;;;;;;;18.90;16.97;;;14.20;96.50;;;;;;5031619;28;20443;-45
2021/05/01 10:08:26;;;;;;;20.57;16.50;;;14.40;96.30;;;;;;5032153;28;20431;-46
2021/05/01 10:10:54;;;;;;;18.13;15.17;;;14.70;96.10;;;;;;5032062;28;20467;-47
2021/05/01 10:13:24;;;;;;;19.53;16.23;;;15.10;96.00;;;;;;5031413;28;20543;-47
2021/05/01 10:15:52;;;;;;;16.60;14.73;;;14.60;95.30;;;;;;5014300;28;20770;-46
2021/05/01 10:18:20;;;;;;;15.93;14.23;;;14.70;95.30;;;;;;5034593;28;20458;-47
2021/05/01 10:20:48;;;;;;;15.10;12.80;;;14.70;94.80;;;;;;5035245;28;20556;-47
2021/05/01 10:23:19;;;;;;;16.33;14.63;;;14.30;94.20;;;;;;5035756;28;20454;-47
2021/05/01 10:25:47;;;;;;;15.67;13.47;;;14.60;93.60;;;;;;5036259;28;20466;-46
2021/05/01 10:28:16;;;;;;;14.60;13.20;;;14.40;93.30;;;;;;5038720;28;20439;-45
2021/05/01 10:30:46;;;;;;;16.63;14.20;;;14.80;93.20;;;;;;5039639;28;20435;-46
2021/05/01 10:33:24;;;;;;;15.40;13.80;;;15.10;93.50;;;;;;5037625;28;20458;-45
2021/05/01 10:35:59;;;;;;;15.20;13.70;;;14.60;92.90;;;;;;5019645;28;20451;-45
2021/05/01 10:38:26;;;;;;;14.60;13.10;;;15.00;92.90;;;;;;5036859;28;20433;-46
2021/05/01 10:40:54;;;;;;;17.00;14.13;;;15.20;92.90;;;;;;5037833;28;20470;-46
2021/05/01 10:43:22;;;;;;;17.10;14.77;;;14.90;92.60;;;;;;5047376;22;20828;-50
2021/05/01 10:45:55;;;;;;;15.10;12.30;;;14.60;92.70;;;;;;5032812;28;20473;-52
2021/05/01 10:48:22;;;;;;;14.73;13.23;;;15.00;92.20;;;;;;5032211;28;20431;-51
2021/05/01 10:51:07;;;;;;;15.30;12.23;;;14.80;92.20;;;;;;5032470;28;20423;-50
2021/05/01 10:53:36;;;;;;;14.00;12.47;;;14.80;92.40;;;;;;5032586;28;20919;-50
2021/05/01 10:56:05;;;;;;;15.50;13.93;;;14.50;91.70;;;;;;5032254;28;20470;-50
2021/05/01 10:58:37;;;;;;;15.90;14.30;;;14.50;91.90;;;;;;5031838;28;20499;-51
2021/05/01 11:01:05;;;;;;;16.27;14.53;;;14.30;91.90;;;;;;5032497;28;20543;-50
2021/05/01 11:03:31;;;;;;;18.13;13.27;;;14.10;92.20;;;;;;5031467;28;20627;-50
2021/05/01 11:06:00;;;;;;;17.10;14.70;;;14.10;92.30;;;;;;5031820;28;20842;-52
2021/05/01 11:08:40;;;;;;;17.00;14.50;;;14.00;92.70;;;;;;5031884;28;20428;-51
2021/05/01 11:11:11;;;;;;;18.83;16.70;;;13.80;93.10;;;;;;5031874;28;20493;-50
2021/05/01 11:13:40;;;;;;;15.47;13.97;;;13.70;93.30;;;;;;5031371;28;20551;-51
2021/05/01 11:16:09;;;;;;;20.57;16.80;;;13.70;93.50;;;;;;5031815;28;20442;-51
2021/05/01 11:18:38;;;;;;;16.67;14.37;;;13.80;93.70;;;;;;5031733;28;20514;-51
2021/05/01 11:21:07;;;;;;;16.53;14.90;;;13.90;93.80;;;;;;5031462;28;20575;-51
2021/05/01 11:23:35;;;;;;;16.33;14.63;;;13.70;93.70;;;;;;5031956;28;20457;-51
2021/05/01 11:26:05;;;;;;;17.17;15.40;;;13.60;93.70;;;;;;5032407;28;20851;-51
2021/05/01 11:28:33;;;;;;;18.83;15.67;;;13.50;93.70;;;;;;5031664;28;20461;-51
2021/05/01 11:31:00;;;;;;;15.73;14.13;;;13.60;94.00;;;;;;5031838;28;20441;-51
2021/05/01 11:33:27;;;;;;;17.53;15.73;;;14.00;94.10;;;;;;5031263;28;20836;-51
2021/05/01 11:35:54;;;;;;;17.67;14.00;;;13.90;94.10;;;;;;5031696;28;20540;-51
2021/05/01 11:38:26;;;;;;;17.47;13.63;;;14.10;93.90;;;;;;5031482;28;20783;-51
2021/05/01 11:40:54;;;;;;;15.47;13.87;;;14.40;93.40;;;;;;5030608;28;20479;-51
2021/05/01 11:43:27;;;;;;;14.77;13.37;;;14.60;93.00;;;;;;5031121;28;20459;-51
2021/05/01 11:46:10;;;;;;;14.93;13.53;;;15.10;92.70;;;;;;5031695;28;20448;-51
2021/05/01 11:48:46;;;;;;;14.40;13.07;;;15.00;92.10;;;;;;5031416;28;20445;-50
2021/05/01 11:51:17;;;;;;;16.03;14.17;;;15.10;92.10;;;;;;5031085;28;20511;-50
2021/05/01 11:53:46;;;;;;;16.00;14.30;;;15.60;91.90;;;;;;5030896;28;20937;-51
2021/05/01 11:56:29;;;;;;;15.80;14.20;;;15.10;91.10;;;;;;5031208;28;20935;-50
2021/05/01 11:59:08;;;;;;;17.80;14.37;;;14.90;90.90;;;;;;5031196;28;20435;-49
2021/05/01 12:01:47;;;;;;;14.93;13.07;;;15.10;90.80;;;;;;5031268;28;20896;-50
2021/05/01 12:04:16;;;;;;;15.03;13.43;;;15.30;90.60;;;;;;5031136;28;20515;-51
2021/05/01 12:06:43;;;;;;;16.60;14.10;;;15.20;90.80;;;;;;5030963;28;20443;-50
2021/05/01 12:09:14;;;;;;;14.67;13.20;;;15.60;90.70;;;;;;5031436;28;20447;-50
2021/05/01 12:11:45;;;;;;;14.90;13.30;;;15.00;89.40;;;;;;5031229;28;20450;-50
2021/05/01 12:14:13;;;;;;;15.03;13.60;;;15.10;89.50;;;;;;5030796;28;20511;-50
2021/05/01 12:16:42;;;;;;;15.03;13.63;;;15.10;89.70;;;;;;5031024;28;20442;-50
2021/05/01 12:19:20;;;;;;;14.03;12.73;;;14.80;89.90;;;;;;5030961;28;20432;-50
2021/05/01 12:21:46;;;;;;;14.30;12.87;;;14.90;88.50;;;;;;5030296;28;20442;-51
2021/05/01 12:24:23;;;;;;;15.47;13.70;;;15.00;89.40;;;;;;5030381;28;20859;-49
2021/05/01 12:26:50;;;;;;;17.80;14.30;;;14.90;88.80;;;;;;5030481;28;20928;-51
2021/05/01 12:29:31;;;;;;;14.43;12.93;;;14.30;88.30;;;;;;5012639;28;20448;-51
2021/05/01 12:32:03;;;;;;;15.67;13.97;;;14.70;89.30;;;;;;5030860;28;20451;-51
2021/05/01 12:35:00;;;;;;;14.23;12.83;;;14.30;89.50;;;;;;5030125;28;20537;-51
2021/05/01 12:37:28;;;;;;;16.30;14.50;;;14.50;90.00;;;;;;5030367;28;20583;-51